Time;durP1;ratioP1;P1;durP2;ratioP2;P2;SDS_P1;SDS_P2;PMS_P1;PMS_P2;Temp;Humidity;BMP_temperature;BMP_pressure;BME280_temperature;BME280_humidity;BME280_pressure;Samples;Min_cycle;Max_cycle;Signal;HPM_P1;HPM_P2
2021/06/25 00:00:45;;;;;;;5.57;3.67;;;19.30;64.60;;;;;;4918490;29;20047;-79
2021/06/25 00:03:14;;;;;;;6.22;3.75;;;19.30;64.70;;;;;;4911871;29;20059;-79
2021/06/25 00:05:45;;;;;;;6.97;3.83;;;19.30;64.70;;;;;;4901459;29;20048;-79
2021/06/25 00:08:13;;;;;;;4.57;3.50;;;19.30;64.80;;;;;;4919262;29;20052;-79
2021/06/25 00:10:42;;;;;;;5.88;3.90;;;19.30;64.80;;;;;;4892153;29;20059;-79
2021/06/25 00:13:10;;;;;;;4.70;3.72;;;19.30;64.80;;;;;;4883359;29;20383;-79
2021/06/25 00:15:38;;;;;;;5.28;3.95;;;19.30;64.90;;;;;;4910866;29;20047;-79
2021/06/25 00:18:07;;;;;;;4.25;3.78;;;19.30;64.90;;;;;;4903119;29;20060;-79
2021/06/25 00:20:35;;;;;;;6.07;3.97;;;19.30;64.90;;;;;;4918526;29;20075;-79
2021/06/25 00:23:03;;;;;;;4.35;3.58;;;19.20;65.00;;;;;;4887784;29;20051;-79
2021/06/25 00:25:32;;;;;;;4.18;3.78;;;19.20;65.10;;;;;;4918443;29;20064;-79
2021/06/25 00:28:01;;;;;;;4.70;3.70;;;19.20;65.10;;;;;;4873991;29;20067;-79
2021/06/25 00:30:29;;;;;;;3.95;3.38;;;19.20;65.20;;;;;;4912132;29;20367;-80
2021/06/25 00:33:04;;;;;;;3.30;3.00;;;19.20;65.30;;;;;;4918698;29;20056;-80
2021/06/25 00:35:33;;;;;;;3.42;3.05;;;19.10;65.30;;;;;;4916834;29;20052;-80
2021/06/25 00:38:01;;;;;;;4.18;3.53;;;19.10;65.30;;;;;;4907847;29;20471;-80
2021/06/25 00:40:29;;;;;;;5.25;3.42;;;19.10;65.40;;;;;;4917630;29;20063;-80
2021/06/25 00:42:57;;;;;;;3.55;3.25;;;19.10;65.50;;;;;;4907507;29;20079;-80
2021/06/25 00:45:25;;;;;;;3.30;3.00;;;19.10;65.50;;;;;;4917236;29;20055;-80
2021/06/25 00:47:53;;;;;;;3.15;2.63;;;19.00;65.60;;;;;;4885953;29;20137;-80
2021/06/25 00:50:28;;;;;;;3.35;2.90;;;19.00;65.60;;;;;;4916336;29;20063;-80
2021/06/25 00:52:58;;;;;;;5.20;2.80;;;19.00;65.60;;;;;;4917401;29;20067;-80
2021/06/25 00:55:28;;;;;;;3.50;2.80;;;19.00;65.60;;;;;;4906862;29;20410;-80
2021/06/25 00:57:56;;;;;;;3.90;2.60;;;19.00;65.60;;;;;;4913709;29;20044;-80
2021/06/25 01:00:24;;;;;;;3.38;2.60;;;19.00;65.70;;;;;;4901074;29;20056;-80
2021/06/25 01:02:53;;;;;;;3.20;2.90;;;19.00;65.70;;;;;;4916365;29;20044;-79
2021/06/25 01:05:21;;;;;;;2.95;2.60;;;19.00;65.70;;;;;;4901755;29;20059;-79
2021/06/25 01:07:48;;;;;;;3.40;3.05;;;19.00;65.80;;;;;;4917049;29;20048;-80
2021/06/25 01:10:17;;;;;;;3.05;2.78;;;19.00;65.80;;;;;;4917695;29;20071;-79
2021/06/25 01:12:45;;;;;;;3.47;2.95;;;19.00;65.90;;;;;;4901097;29;20067;-79
2021/06/25 01:15:14;;;;;;;4.28;2.80;;;19.00;65.90;;;;;;4916899;29;20067;-79
2021/06/25 01:17:43;;;;;;;2.95;2.72;;;18.90;65.90;;;;;;4885337;29;20056;-80
2021/06/25 01:20:26;;;;;;;3.10;2.80;;;18.90;66.00;;;;;;4901545;29;20044;-80
2021/06/25 01:22:57;;;;;;;3.50;2.95;;;18.90;66.00;;;;;;4908122;29;20052;-80
2021/06/25 01:25:36;;;;;;;4.00;3.00;;;18.90;66.00;;;;;;4901463;29;20414;-79
2021/06/25 01:28:10;;;;;;;3.45;3.15;;;18.90;66.10;;;;;;4892795;29;20060;-79
2021/06/25 01:30:41;;;;;;;3.00;2.75;;;18.90;66.10;;;;;;4920070;29;20068;-79
2021/06/25 01:33:18;;;;;;;3.13;2.83;;;18.80;66.20;;;;;;4889389;29;20386;-79
2021/06/25 01:35:56;;;;;;;3.00;2.70;;;18.80;66.20;;;;;;4920413;29;20056;-79
2021/06/25 01:38:25;;;;;;;2.75;2.55;;;18.80;66.20;;;;;;4904120;29;20044;-79
2021/06/25 01:40:54;;;;;;;3.45;2.60;;;18.80;66.20;;;;;;4886094;29;20053;-79
2021/06/25 01:43:25;;;;;;;2.97;2.58;;;18.80;66.30;;;;;;4900589;29;20059;-80
2021/06/25 01:45:54;;;;;;;2.60;2.40;;;18.80;66.20;;;;;;4898005;29;20068;-79
2021/06/25 01:48:23;;;;;;;3.10;2.80;;;18.80;66.30;;;;;;4902367;29;20053;-79
2021/06/25 01:50:53;;;;;;;3.65;2.38;;;18.80;66.30;;;;;;4918819;29;20470;-80
2021/06/25 01:53:24;;;;;;;2.97;2.58;;;18.80;66.30;;;;;;4924259;29;20383;-80
2021/06/25 01:55:52;;;;;;;3.08;2.65;;;18.80;66.30;;;;;;4904346;29;20044;-79
2021/06/25 01:58:25;;;;;;;4.65;2.55;;;18.80;66.30;;;;;;4920901;29;20048;-79
2021/06/25 02:00:53;;;;;;;;;;;18.80;66.40;;;;;;4904605;29;20067;-80
2021/06/25 02:03:22;;;;;;;2.55;2.25;;;18.80;66.40;;;;;;4903829;29;19934;-80
2021/06/25 02:05:50;;;;;;;2.47;2.28;;;18.80;66.30;;;;;;4920285;29;20404;-80
2021/06/25 02:08:18;;;;;;;3.53;2.08;;;18.80;66.40;;;;;;4920088;29;20474;-80
2021/06/25 02:10:47;;;;;;;3.00;1.90;;;18.80;66.40;;;;;;4908790;29;20060;-80
2021/06/25 02:13:15;;;;;;;3.42;2.03;;;18.80;66.40;;;;;;4903727;29;20063;-80
2021/06/25 02:15:43;;;;;;;2.55;1.80;;;18.80;66.40;;;;;;4889207;29;20048;-80
2021/06/25 02:18:11;;;;;;;2.42;1.60;;;18.80;66.40;;;;;;4903863;29;20059;-80
2021/06/25 02:20:38;;;;;;;2.15;1.67;;;18.80;66.30;;;;;;4920586;29;20056;-80
2021/06/25 02:23:07;;;;;;;5.03;1.50;;;18.70;66.30;;;;;;4887555;29;20052;-80
2021/06/25 02:25:35;;;;;;;1.95;1.42;;;18.70;66.30;;;;;;4894119;29;20049;-80
2021/06/25 02:28:04;;;;;;;2.13;1.35;;;18.70;66.30;;;;;;4917110;29;20486;-80
2021/06/25 02:30:32;;;;;;;1.67;1.20;;;18.70;66.20;;;;;;4919828;29;20071;-80
2021/06/25 02:33:00;;;;;;;2.67;1.35;;;18.70;66.10;;;;;;4908053;29;20052;-80
2021/06/25 02:35:28;;;;;;;2.63;1.30;;;18.70;66.10;;;;;;4903702;29;20060;-80
2021/06/25 02:37:56;;;;;;;1.77;1.25;;;18.70;66.10;;;;;;4901291;29;20052;-80
2021/06/25 02:40:24;;;;;;;2.10;1.30;;;18.70;66.00;;;;;;4913639;29;20063;-80
2021/06/25 02:42:53;;;;;;;1.27;1.17;;;18.60;66.00;;;;;;4906006;29;20069;-80
2021/06/25 02:45:22;;;;;;;3.72;1.30;;;18.70;65.90;;;;;;4918769;29;20048;-80
2021/06/25 02:47:50;;;;;;;1.42;1.30;;;18.60;65.90;;;;;;4896308;29;20048;-80
2021/06/25 02:50:18;;;;;;;2.05;1.15;;;18.60;65.90;;;;;;4919056;29;20044;-80
2021/06/25 02:52:46;;;;;;;1.92;1.00;;;18.60;65.90;;;;;;4912336;29;20047;-80
2021/06/25 02:55:15;;;;;;;2.30;1.17;;;18.60;65.80;;;;;;4902866;29;20044;-80
2021/06/25 02:57:43;;;;;;;1.67;1.20;;;18.60;65.80;;;;;;4921519;29;20040;-80
2021/06/25 03:00:14;;;;;;;2.10;1.60;;;18.50;65.80;;;;;;4892743;29;20053;-80
2021/06/25 03:02:43;;;;;;;1.30;1.20;;;18.50;65.70;;;;;;4916747;29;20048;-80
2021/06/25 03:05:13;;;;;;;3.20;1.30;;;18.50;65.70;;;;;;4919374;29;20048;-80
2021/06/25 03:07:42;;;;;;;3.00;1.30;;;18.50;65.70;;;;;;4904145;29;20466;-80
2021/06/25 03:10:11;;;;;;;3.30;1.77;;;18.50;65.70;;;;;;4918136;29;20478;-80
2021/06/25 03:12:40;;;;;;;2.60;1.45;;;18.40;65.60;;;;;;4903453;29;20060;-79
2021/06/25 03:15:10;;;;;;;1.45;1.27;;;18.40;65.60;;;;;;4901368;29;20064;-79
2021/06/25 03:17:38;;;;;;;2.05;1.30;;;18.40;65.60;;;;;;4919851;29;20060;-79
2021/06/25 03:20:07;;;;;;;3.03;1.50;;;18.40;65.60;;;;;;4903001;29;20052;-79
2021/06/25 03:22:36;;;;;;;3.72;1.60;;;18.40;65.60;;;;;;4918925;29;20129;-79
2021/06/25 03:25:06;;;;;;;1.55;1.20;;;18.40;65.60;;;;;;4918483;29;20048;-79
2021/06/25 03:27:36;;;;;;;4.50;1.60;;;18.30;65.60;;;;;;4918816;29;20048;-80
2021/06/25 03:30:07;;;;;;;2.13;1.40;;;18.30;65.50;;;;;;4870822;29;20059;-80
2021/06/25 03:32:35;;;;;;;2.13;1.40;;;18.30;65.50;;;;;;4907777;29;20372;-80
2021/06/25 03:35:06;;;;;;;2.17;1.52;;;18.30;65.50;;;;;;4919450;29;20052;-80
2021/06/25 03:37:34;;;;;;;2.50;1.40;;;18.30;65.50;;;;;;4921825;29;20062;-80
2021/06/25 03:40:06;;;;;;;3.10;1.70;;;18.30;65.50;;;;;;4907614;29;20075;-80
2021/06/25 03:42:34;;;;;;;4.13;1.58;;;18.30;65.50;;;;;;4902440;29;20497;-80
2021/06/25 03:45:06;;;;;;;2.53;1.40;;;18.30;65.50;;;;;;4919327;29;20044;-80
2021/06/25 03:47:34;;;;;;;2.47;1.38;;;18.30;65.50;;;;;;4919121;29;20056;-80
2021/06/25 03:50:04;;;;;;;4.30;1.58;;;18.30;65.50;;;;;;4900285;29;20056;-80
2021/06/25 03:52:32;;;;;;;1.98;1.40;;;18.30;65.50;;;;;;4904232;29;20063;-80
2021/06/25 03:55:00;;;;;;;3.10;1.42;;;18.30;65.40;;;;;;4902715;29;20387;-80
2021/06/25 03:57:29;;;;;;;4.22;1.52;;;18.20;65.40;;;;;;4919362;29;20511;-80
2021/06/25 03:59:56;;;;;;;3.70;1.48;;;18.30;65.40;;;;;;4922445;29;20063;-80
2021/06/25 04:02:24;;;;;;;3.47;1.70;;;18.20;65.40;;;;;;4913857;29;20056;-80
2021/06/25 04:04:53;;;;;;;3.03;1.67;;;18.30;65.30;;;;;;4870545;29;20052;-80
2021/06/25 04:07:22;;;;;;;3.55;1.70;;;18.20;65.30;;;;;;4918450;29;20059;-80
2021/06/25 04:09:50;;;;;;;4.97;1.77;;;18.20;65.30;;;;;;4885871;29;20063;-80
2021/06/25 04:12:18;;;;;;;4.57;1.83;;;18.20;65.30;;;;;;4886671;29;20075;-80
2021/06/25 04:14:46;;;;;;;2.40;1.70;;;18.20;65.20;;;;;;4884984;29;20059;-79
2021/06/25 04:17:14;;;;;;;3.05;2.10;;;18.20;65.20;;;;;;4913747;29;20384;-80
2021/06/25 04:19:42;;;;;;;5.32;1.90;;;18.20;65.10;;;;;;4919381;29;20119;-80
2021/06/25 04:22:10;;;;;;;2.83;1.70;;;18.20;65.10;;;;;;4904468;29;20056;-80
2021/06/25 04:24:38;;;;;;;3.97;1.65;;;18.20;65.00;;;;;;4901278;29;20064;-81
2021/06/25 04:27:07;;;;;;;4.05;1.98;;;18.20;65.00;;;;;;4918469;29;20059;-80
2021/06/25 04:29:34;;;;;;;4.43;2.00;;;18.10;65.00;;;;;;4917682;29;20075;-79
2021/06/25 04:32:03;;;;;;;3.30;1.88;;;18.10;65.00;;;;;;4917476;29;20060;-80
2021/06/25 04:34:31;;;;;;;3.40;1.88;;;18.10;64.90;;;;;;4901849;29;20044;-80
2021/06/25 04:36:59;;;;;;;4.10;2.20;;;18.10;64.90;;;;;;4895361;29;20052;-80
2021/06/25 04:39:27;;;;;;;4.38;2.15;;;18.10;64.90;;;;;;4913312;29;20059;-80
2021/06/25 04:41:55;;;;;;;4.18;2.10;;;18.10;64.80;;;;;;4901156;29;20055;-80
2021/06/25 04:44:24;;;;;;;6.25;2.13;;;18.10;64.80;;;;;;4900954;29;20052;-80
2021/06/25 04:46:52;;;;;;;4.15;2.00;;;18.10;64.80;;;;;;4915700;29;20056;-80
2021/06/25 04:49:21;;;;;;;4.65;2.17;;;18.00;64.70;;;;;;4900142;29;20398;-79
2021/06/25 04:51:48;;;;;;;7.75;2.30;;;18.00;64.70;;;;;;4913910;29;20408;-80
2021/06/25 04:54:16;;;;;;;5.75;2.53;;;18.00;64.70;;;;;;4898329;29;20463;-80
2021/06/25 04:56:44;;;;;;;3.90;2.00;;;18.00;64.60;;;;;;4884583;29;20051;-79
2021/06/25 04:59:13;;;;;;;7.05;2.20;;;18.00;64.60;;;;;;4918171;29;20052;-79
2021/06/25 05:01:41;;;;;;;6.00;2.70;;;18.00;64.60;;;;;;4891201;29;20048;-80
2021/06/25 05:04:09;;;;;;;4.05;2.17;;;18.00;64.60;;;;;;4921450;29;20052;-80
2021/06/25 05:06:37;;;;;;;6.35;2.55;;;18.00;64.50;;;;;;4889655;29;20067;-80
2021/06/25 05:09:05;;;;;;;4.80;2.40;;;18.00;64.40;;;;;;4916193;29;20097;-79
2021/06/25 05:11:33;;;;;;;7.30;2.65;;;18.00;64.40;;;;;;4888183;29;20387;-80
2021/06/25 05:14:01;;;;;;;6.13;2.60;;;18.00;64.40;;;;;;4917338;29;20071;-80
2021/06/25 05:16:30;;;;;;;5.50;2.60;;;18.00;64.30;;;;;;4896627;29;20455;-79
2021/06/25 05:18:58;;;;;;;6.32;3.05;;;18.00;64.30;;;;;;4917994;29;20048;-80
2021/06/25 05:21:29;;;;;;;5.40;2.85;;;18.00;64.20;;;;;;4910236;29;20059;-80
2021/06/25 05:23:58;;;;;;;7.68;3.00;;;18.00;64.20;;;;;;4900140;29;20052;-80
2021/06/25 05:26:25;;;;;;;13.15;3.17;;;18.00;64.10;;;;;;4917371;29;20082;-80
2021/06/25 05:28:53;;;;;;;7.53;2.70;;;18.00;64.10;;;;;;4909966;29;20052;-80
2021/06/25 05:31:21;;;;;;;6.28;2.45;;;18.00;64.10;;;;;;4903827;29;20051;-80
2021/06/25 05:33:51;;;;;;;8.10;2.88;;;18.00;64.00;;;;;;4921358;29;20500;-80
2021/06/25 05:36:19;;;;;;;5.45;2.72;;;17.90;64.00;;;;;;4920192;29;20359;-79
2021/06/25 05:38:47;;;;;;;7.13;3.00;;;17.90;64.00;;;;;;4907884;29;20390;-79
2021/06/25 05:41:17;;;;;;;6.90;2.40;;;17.90;64.00;;;;;;4921368;29;20067;-79
2021/06/25 05:43:45;;;;;;;4.70;2.17;;;17.90;63.90;;;;;;4905434;29;20467;-80
2021/06/25 05:46:13;;;;;;;6.05;2.58;;;18.00;63.90;;;;;;4912574;29;20063;-79
2021/06/25 05:48:42;;;;;;;8.13;2.80;;;18.00;63.80;;;;;;4904424;29;20056;-79
2021/06/25 05:51:12;;;;;;;7.53;2.85;;;18.00;63.70;;;;;;4896525;29;20514;-80
2021/06/25 05:53:40;;;;;;;9.20;2.78;;;17.90;63.70;;;;;;4920931;29;20078;-80
2021/06/25 05:56:09;;;;;;;4.55;2.30;;;18.00;63.70;;;;;;4909324;29;20056;-80
2021/06/25 05:58:37;;;;;;;8.52;3.22;;;18.00;63.70;;;;;;4904599;29;20048;-80
2021/06/25 06:01:05;;;;;;;6.88;2.80;;;18.00;63.60;;;;;;4920881;29;20060;-80
2021/06/25 06:03:33;;;;;;;9.18;2.65;;;18.00;63.50;;;;;;4918932;29;20394;-79
2021/06/25 06:06:02;;;;;;;7.47;2.78;;;18.00;63.50;;;;;;4920942;29;20052;-80
2021/06/25 06:08:36;;;;;;;7.38;2.67;;;18.00;63.40;;;;;;4904528;29;20063;-80
2021/06/25 06:11:05;;;;;;;7.85;2.75;;;18.00;63.40;;;;;;4909110;29;20055;-79
2021/06/25 06:13:34;;;;;;;6.68;2.80;;;18.00;63.40;;;;;;4875226;29;20057;-79
2021/06/25 06:16:02;;;;;;;7.22;2.70;;;18.00;63.30;;;;;;4883725;29;20048;-79
2021/06/25 06:18:48;;;;;;;6.85;2.53;;;18.00;63.30;;;;;;4918044;29;20056;-80
2021/06/25 06:21:19;;;;;;;5.38;2.40;;;18.00;63.20;;;;;;4913799;29;20391;-80
2021/06/25 06:32:24;;;;;;;4.90;2.22;;;18.00;63.00;;;;;;4887945;29;20056;-80
2021/06/25 06:34:53;;;;;;;6.50;2.45;;;18.00;62.90;;;;;;4885603;29;20386;-81
2021/06/25 06:37:21;;;;;;;8.98;2.60;;;18.00;62.90;;;;;;4913693;29;20052;-82
2021/06/25 06:39:50;;;;;;;4.85;2.33;;;18.00;62.80;;;;;;4919218;29;20482;-83
2021/06/25 06:42:18;;;;;;;4.80;2.20;;;18.00;62.80;;;;;;4903630;29;20052;-83
2021/06/25 06:44:47;;;;;;;5.57;2.60;;;18.00;62.70;;;;;;4917801;29;20067;-83
2021/06/25 06:47:15;;;;;;;6.35;2.67;;;18.00;62.70;;;;;;4910187;29;20078;-84
2021/06/25 06:49:43;;;;;;;9.63;2.58;;;18.00;62.80;;;;;;4900857;29;20052;-84
2021/06/25 06:52:12;;;;;;;7.60;2.88;;;18.00;62.70;;;;;;4884211;29;20075;-83
2021/06/25 06:54:41;;;;;;;5.65;2.55;;;18.00;62.60;;;;;;4917525;29;20368;-83
2021/06/25 06:57:09;;;;;;;6.60;2.70;;;18.10;62.60;;;;;;4901132;29;20056;-81
2021/06/25 06:59:38;;;;;;;4.45;2.25;;;18.00;62.50;;;;;;4917783;29;20048;-81
2021/06/25 07:02:06;;;;;;;5.40;2.30;;;18.00;62.40;;;;;;4917076;29;20055;-81
2021/06/25 07:04:41;;;;;;;6.30;2.58;;;18.10;62.40;;;;;;4912636;29;20071;-81
2021/06/25 07:07:09;;;;;;;6.70;2.70;;;18.10;62.40;;;;;;4919532;29;20359;-81
2021/06/25 07:09:37;;;;;;;5.65;2.17;;;18.10;62.40;;;;;;4913615;29;20052;-81
2021/06/25 07:12:05;;;;;;;5.78;2.20;;;18.10;62.30;;;;;;4884892;29;20379;-80
2021/06/25 07:14:33;;;;;;;7.10;2.40;;;18.10;62.30;;;;;;4895893;29;20048;-81
2021/06/25 07:17:01;;;;;;;4.78;2.50;;;18.10;62.30;;;;;;4920904;29;20052;-81
2021/06/25 07:19:32;;;;;;;4.85;2.35;;;18.10;62.30;;;;;;4885019;29;20048;-87
2021/06/25 07:22:00;;;;;;;4.30;2.10;;;18.20;62.20;;;;;;4913720;29;20490;-87
2021/06/25 07:24:29;;;;;;;5.70;2.28;;;18.20;62.20;;;;;;4885324;29;20052;-86
2021/06/25 07:26:57;;;;;;;5.95;2.25;;;18.20;62.10;;;;;;4884948;29;20055;-86
2021/06/25 07:29:25;;;;;;;4.05;2.30;;;18.20;62.10;;;;;;4882436;29;20381;-87
2021/06/25 07:31:55;;;;;;;5.30;2.10;;;18.20;62.00;;;;;;4917690;29;20044;-86
2021/06/25 07:34:23;;;;;;;5.75;2.28;;;18.20;61.90;;;;;;4893818;29;20052;-85
2021/06/25 07:36:52;;;;;;;4.72;1.90;;;18.20;61.90;;;;;;4916765;29;20040;-85
2021/06/25 07:39:20;;;;;;;3.95;2.00;;;18.20;61.90;;;;;;4903046;29;20052;-86
2021/06/25 07:41:48;;;;;;;3.83;2.13;;;18.20;61.90;;;;;;4892096;29;20055;-85
2021/06/25 07:44:17;;;;;;;5.05;2.30;;;18.20;61.90;;;;;;4874660;29;20598;-85
2021/06/25 07:46:45;;;;;;;4.43;2.10;;;18.20;61.90;;;;;;4896692;29;20044;-86
2021/06/25 07:49:17;;;;;;;5.28;2.10;;;18.30;61.80;;;;;;4884723;29;20052;-86
2021/06/25 07:51:45;;;;;;;16.00;2.60;;;18.30;61.80;;;;;;4869646;29;20056;-86
2021/06/25 07:54:17;;;;;;;5.30;1.98;;;18.30;61.70;;;;;;4917358;29;20056;-84
2021/06/25 07:56:47;;;;;;;9.35;2.17;;;18.30;61.70;;;;;;4916716;29;20052;-83
2021/06/25 07:59:16;;;;;;;6.57;1.90;;;18.30;61.90;;;;;;4887107;29;20056;-90
2021/06/25 08:01:45;;;;;;;11.93;2.25;;;18.30;62.10;;;;;;4903140;29;20463;-83
2021/06/25 08:04:14;;;;;;;4.32;1.83;;;18.30;62.30;;;;;;4897842;29;20060;-82
2021/06/25 08:06:43;;;;;;;4.20;1.80;;;18.30;62.50;;;;;;4899926;29;20395;-83
2021/06/25 08:09:11;;;;;;;5.95;1.88;;;18.30;62.50;;;;;;4897673;29;20048;-83
2021/06/25 08:11:39;;;;;;;6.38;1.85;;;18.30;62.60;;;;;;4900568;29;20048;-86
2021/06/25 08:14:07;;;;;;;8.27;1.83;;;18.40;62.60;;;;;;4886851;29;20051;-86
2021/06/25 08:16:35;;;;;;;6.60;1.63;;;18.50;62.60;;;;;;4916014;29;20052;-85
2021/06/25 08:19:06;;;;;;;3.53;1.75;;;18.50;62.60;;;;;;4883859;29;20063;-83
2021/06/25 08:21:36;;;;;;;4.13;1.45;;;18.50;62.50;;;;;;4901620;29;20044;-84
2021/06/25 08:24:11;;;;;;;5.65;1.70;;;18.60;62.30;;;;;;4904925;29;20472;-84
2021/06/25 08:26:42;;;;;;;3.15;1.52;;;18.60;62.20;;;;;;4901469;29;20056;-83
2021/06/25 08:29:11;;;;;;;5.25;1.55;;;18.60;62.10;;;;;;4910004;29;20060;-86
2021/06/25 08:31:39;;;;;;;5.50;1.73;;;18.70;62.00;;;;;;4883614;29;20048;-85
2021/06/25 08:34:10;;;;;;;6.18;1.80;;;18.70;61.90;;;;;;4905326;29;20056;-82
2021/06/25 08:36:45;;;;;;;2.90;1.50;;;18.70;61.90;;;;;;4894910;29;20063;-84
2021/06/25 08:39:16;;;;;;;7.57;1.73;;;18.80;61.80;;;;;;4895372;29;20059;-84
2021/06/25 08:41:45;;;;;;;3.53;1.38;;;18.80;61.80;;;;;;4912323;29;20051;-85
2021/06/25 08:44:13;;;;;;;6.50;1.63;;;18.80;61.90;;;;;;4880594;29;20051;-84
2021/06/25 08:46:46;;;;;;;5.65;1.40;;;18.90;61.70;;;;;;4894327;29;20057;-86
2021/06/25 08:49:21;;;;;;;7.30;1.58;;;18.90;61.60;;;;;;4897679;29;20394;-82
2021/06/25 08:51:50;;;;;;;3.17;1.40;;;18.90;61.50;;;;;;4914518;29;20047;-85
2021/06/25 08:54:20;;;;;;;2.97;1.30;;;19.00;61.50;;;;;;4885042;29;20067;-85
2021/06/25 08:56:49;;;;;;;4.63;1.48;;;19.00;61.40;;;;;;4877679;29;20493;-84
2021/06/25 08:59:20;;;;;;;2.47;1.40;;;19.00;61.30;;;;;;4903221;29;20044;-84
2021/06/25 09:01:51;;;;;;;3.88;1.38;;;19.00;61.30;;;;;;4915464;29;20055;-80
2021/06/25 09:04:34;;;;;;;2.70;1.20;;;19.00;61.10;;;;;;4906407;29;20063;-83
2021/06/25 09:07:04;;;;;;;1.93;1.17;;;19.00;61.10;;;;;;4899722;29;20048;-84
2021/06/25 09:09:49;;;;;;;2.03;1.20;;;19.00;61.00;;;;;;4914360;29;20757;-83
2021/06/25 09:12:25;;;;;;;1.85;1.00;;;19.00;60.90;;;;;;4887026;29;20055;-84
2021/06/25 09:15:05;;;;;;;5.60;1.42;;;19.00;60.90;;;;;;4904097;29;20060;-82
2021/06/25 09:17:35;;;;;;;3.38;1.17;;;19.00;60.90;;;;;;4897812;29;20074;-82
2021/06/25 09:20:05;;;;;;;2.30;1.20;;;19.10;60.70;;;;;;4901290;29;20052;-82
2021/06/25 09:22:49;;;;;;;3.65;1.08;;;19.10;60.70;;;;;;4892259;29;20064;-82
2021/06/25 09:25:16;;;;;;;3.30;1.10;;;19.10;60.70;;;;;;4901456;29;20363;-80
2021/06/25 09:27:57;;;;;;;4.38;1.10;;;19.10;60.60;;;;;;4917667;29;20067;-81
2021/06/25 09:30:27;;;;;;;3.30;1.00;;;19.10;60.50;;;;;;4904893;29;20064;-84
2021/06/25 09:32:55;;;;;;;10.52;1.40;;;19.10;60.50;;;;;;4917913;29;20060;-82
2021/06/25 09:35:25;;;;;;;4.50;1.08;;;19.10;60.40;;;;;;4902749;29;20048;-82
2021/06/25 09:37:59;;;;;;;2.67;0.90;;;19.10;60.40;;;;;;4900310;29;20386;-86
2021/06/25 09:40:37;;;;;;;4.13;1.05;;;19.10;60.50;;;;;;4916138;29;20051;-84
2021/06/25 09:43:13;;;;;;;6.32;1.15;;;19.00;60.60;;;;;;4891827;29;20052;-84
2021/06/25 09:45:50;;;;;;;6.25;1.10;;;19.00;60.80;;;;;;4915209;29;20470;-83
2021/06/25 09:48:20;;;;;;;4.55;1.17;;;19.00;60.80;;;;;;4919113;29;20060;-85
2021/06/25 09:50:48;;;;;;;4.80;1.38;;;18.90;60.70;;;;;;4895508;29;20064;-86
2021/06/25 09:53:18;;;;;;;6.47;1.10;;;18.90;60.70;;;;;;4912553;29;20066;-85
2021/06/25 09:55:55;;;;;;;5.90;0.98;;;18.80;60.70;;;;;;4917644;29;20074;-82
2021/06/25 09:58:31;;;;;;;1.17;0.90;;;18.80;60.70;;;;;;4893741;29;20059;-83
2021/06/25 10:01:24;;;;;;;2.20;0.93;;;18.80;60.70;;;;;;4918928;29;20048;-82
2021/06/25 10:03:58;;;;;;;1.77;0.98;;;18.70;60.60;;;;;;4916184;29;20048;-85
2021/06/25 10:06:34;;;;;;;2.72;0.85;;;18.70;60.60;;;;;;4903290;29;20052;-83
2021/06/25 10:09:04;;;;;;;2.78;1.10;;;18.70;60.80;;;;;;4914664;29;20076;-82
2021/06/25 10:11:34;;;;;;;2.17;0.90;;;18.70;61.10;;;;;;4924681;29;20067;-81
2021/06/25 10:16:50;;;;;;;6.13;1.20;;;18.70;61.00;;;;;;4988697;27;3603337;-84
2021/06/25 10:19:21;;;;;;;1.83;1.00;;;18.60;60.80;;;;;;5091452;28;20063;-81
2021/06/25 10:26:36;;;;;;;3.67;1.10;;;18.60;60.20;;;;;;5012521;27;2701372;-84
2021/06/25 10:29:07;;;;;;;2.15;1.00;;;18.50;60.40;;;;;;5102177;28;20066;-84
2021/06/25 10:31:41;;;;;;;3.25;1.13;;;18.50;60.70;;;;;;5076507;28;20469;-83
2021/06/25 10:34:13;;;;;;;6.20;1.50;;;18.60;61.00;;;;;;5110880;28;20047;-86
2021/06/25 10:36:42;;;;;;;2.55;0.93;;;18.60;61.00;;;;;;5109054;28;20059;-84
2021/06/25 10:39:13;;;;;;;2.97;0.90;;;18.60;61.10;;;;;;5093632;28;20381;-84
2021/06/25 10:41:49;;;;;;;2.05;1.10;;;18.60;61.10;;;;;;5095969;28;20052;-86
2021/06/25 10:44:36;;;;;;;2.78;1.15;;;18.60;61.10;;;;;;5103040;28;20063;-86
2021/06/25 10:47:33;;;;;;;3.17;1.27;;;18.70;61.00;;;;;;5111529;28;20377;-83
2021/06/25 10:50:02;;;;;;;4.95;1.30;;;18.70;61.00;;;;;;5074488;28;20050;-83
2021/06/25 10:52:41;;;;;;;2.30;1.50;;;18.70;61.00;;;;;;5099975;28;20047;-83
2021/06/25 10:55:18;;;;;;;1.98;1.52;;;18.70;60.80;;;;;;5104767;28;20474;-84
2021/06/25 10:57:50;;;;;;;2.67;1.40;;;18.70;60.60;;;;;;5107518;28;20043;-85
2021/06/25 11:00:25;;;;;;;3.95;1.40;;;18.80;60.40;;;;;;5106132;28;20066;-84
2021/06/25 11:02:53;;;;;;;3.70;1.45;;;18.80;60.30;;;;;;5106914;28;20059;-83
2021/06/25 11:05:26;;;;;;;2.95;1.58;;;18.80;60.30;;;;;;5076243;28;20381;-83
2021/06/25 11:08:00;;;;;;;1.77;1.20;;;18.80;60.30;;;;;;5104992;28;20053;-84
2021/06/25 11:10:33;;;;;;;1.52;1.17;;;18.80;60.20;;;;;;5102370;28;20051;-82
2021/06/25 11:13:12;;;;;;;3.53;1.35;;;18.90;60.10;;;;;;5076555;28;20465;-85
2021/06/25 11:15:42;;;;;;;2.58;1.33;;;18.90;59.90;;;;;;5085312;28;20488;-84
2021/06/25 11:18:28;;;;;;;2.63;1.30;;;18.90;59.80;;;;;;5105507;28;20056;-83
2021/06/25 11:21:05;;;;;;;2.28;1.40;;;19.00;59.80;;;;;;5106101;28;20051;-83
2021/06/25 11:23:37;;;;;;;4.03;1.60;;;19.00;59.70;;;;;;5095686;28;20091;-84
2021/06/25 11:26:15;;;;;;;4.85;1.63;;;19.10;59.60;;;;;;5108676;28;20060;-82
2021/06/25 11:29:04;;;;;;;5.47;1.52;;;19.20;59.60;;;;;;5083509;28;20048;-84
2021/06/25 11:31:31;;;;;;;3.00;1.23;;;19.30;59.50;;;;;;5104001;28;20061;-83
2021/06/25 11:34:03;;;;;;;8.20;1.50;;;19.30;59.50;;;;;;5104498;28;20047;-84
2021/06/25 11:36:48;;;;;;;3.95;1.60;;;19.30;59.50;;;;;;5079071;28;20052;-83
2021/06/25 11:39:27;;;;;;;3.60;1.60;;;19.30;59.50;;;;;;5070334;28;20055;-83
2021/06/25 11:42:06;;;;;;;4.70;1.58;;;19.30;59.60;;;;;;5094764;28;20040;-84
2021/06/25 11:44:40;;;;;;;3.72;1.65;;;19.30;59.70;;;;;;5094984;28;20048;-84
2021/06/25 11:47:29;;;;;;;3.17;1.73;;;19.30;59.70;;;;;;5093745;28;20041;-84
2021/06/25 11:50:12;;;;;;;4.18;1.95;;;19.30;59.60;;;;;;5061740;28;20040;-84
2021/06/25 11:52:43;;;;;;;6.47;1.63;;;19.20;59.60;;;;;;5079321;28;20047;-83
2021/06/25 11:55:13;;;;;;;3.95;1.83;;;19.20;59.70;;;;;;5092753;28;20052;-84
2021/06/25 11:57:42;;;;;;;2.13;1.60;;;19.10;59.80;;;;;;5070687;28;20048;-84
2021/06/25 12:00:21;;;;;;;3.58;1.73;;;19.10;60.00;;;;;;5053341;28;20056;-84
2021/06/25 12:02:59;;;;;;;5.28;1.50;;;19.00;60.00;;;;;;5089178;28;20063;-83
2021/06/25 12:05:32;;;;;;;2.50;1.58;;;19.00;60.00;;;;;;5078365;28;20055;-84
2021/06/25 12:08:14;;;;;;;2.47;1.58;;;19.00;60.10;;;;;;5083360;28;20051;-84
2021/06/25 12:11:05;;;;;;;;;;;;;;;;;;;;;
2021/06/25 12:14:10;;;;;;;1.92;1.50;;;18.90;60.10;;;;;;5088712;28;20055;-84
2021/06/25 12:16:42;;;;;;;2.15;1.58;;;18.80;60.10;;;;;;5110993;28;20373;-85
2021/06/25 12:19:11;;;;;;;3.05;1.45;;;18.80;60.10;;;;;;5074674;28;20052;-85
2021/06/25 12:21:40;;;;;;;2.92;1.50;;;18.70;60.30;;;;;;5088952;28;20454;-85
2021/06/25 12:24:09;;;;;;;2.63;1.48;;;18.70;60.40;;;;;;5093909;28;20067;-85
2021/06/25 12:26:40;;;;;;;2.78;1.80;;;18.70;60.50;;;;;;5097256;28;20058;-86
2021/06/25 12:29:10;;;;;;;2.88;1.65;;;18.70;60.50;;;;;;5097426;28;20515;-85
2021/06/25 12:31:38;;;;;;;5.13;1.52;;;18.60;60.50;;;;;;5113676;28;20043;-84
2021/06/25 12:34:13;;;;;;;2.47;1.70;;;18.60;60.70;;;;;;5097907;28;20387;-84
2021/06/25 12:36:43;;;;;;;5.00;2.13;;;18.60;60.90;;;;;;5096910;28;20455;-84
2021/06/25 12:39:13;;;;;;;2.08;1.70;;;18.60;60.80;;;;;;5098262;28;20051;-85
2021/06/25 12:41:45;;;;;;;4.05;1.88;;;18.60;60.90;;;;;;5089265;28;20052;-86
2021/06/25 12:44:22;;;;;;;3.58;1.80;;;18.70;60.90;;;;;;5097501;28;20047;-84
2021/06/25 12:47:07;;;;;;;3.22;2.10;;;18.70;61.00;;;;;;5098278;28;20047;-84
2021/06/25 12:49:37;;;;;;;4.72;1.80;;;18.70;61.00;;;;;;5114297;28;20044;-86
2021/06/25 12:52:23;;;;;;;2.63;1.90;;;18.70;61.00;;;;;;5098377;28;20062;-84
2021/06/25 12:54:54;;;;;;;2.10;1.40;;;18.70;61.30;;;;;;5051796;28;20055;-85
2021/06/25 12:57:23;;;;;;;1.93;1.70;;;18.70;61.40;;;;;;5086999;28;20058;-83
2021/06/25 13:00:01;;;;;;;2.97;2.00;;;18.70;61.60;;;;;;5061579;28;21868;-87
2021/06/25 13:02:36;;;;;;;2.53;1.88;;;18.70;61.90;;;;;;5088505;28;20381;-85
2021/06/25 13:05:08;;;;;;;3.00;1.95;;;18.70;62.20;;;;;;5072683;28;20048;-87
2021/06/25 13:07:42;;;;;;;2.67;1.70;;;18.70;62.60;;;;;;5110270;28;20480;-85
2021/06/25 13:10:11;;;;;;;2.25;1.77;;;18.70;62.90;;;;;;5089747;28;20392;-81
2021/06/25 13:12:41;;;;;;;2.15;1.38;;;18.70;63.20;;;;;;5079660;28;20453;-82
2021/06/25 13:15:13;;;;;;;1.55;1.40;;;18.70;63.30;;;;;;5072939;28;20048;-83
2021/06/25 13:17:45;;;;;;;2.22;1.30;;;18.70;63.60;;;;;;5114123;28;20055;-82
2021/06/25 13:20:20;;;;;;;1.75;1.10;;;18.60;63.80;;;;;;5094140;28;20055;-84
2021/06/25 13:23:03;;;;;;;1.42;1.00;;;18.60;64.10;;;;;;5076427;28;20062;-84